Rancho Heights (217) Station Data

Red Flag Warning: No
Fire Weather Zone: 250
SDGE Region: North East
Lat/Lon: 33.42/-117.06

Observations

Time Wind Speed/Gust Temp(F) RH Fuel Moist Fuel Temp(F) Dewpt(F) Tmax(F) Tmin(F) Accum Precip 10-min Precip SL Press(mb)
4/30 12:00am 87 4 G 5 65° 15% - - 16° 80.3° 56.4° - - -
4/29 11:50pm 102 4 G 4 65° 15% - - 16° 80.3° 56.4° - - -
4/29 11:40pm 117 4 G 5 65° 15% - - 16° 80.3° 56.4° - - -
4/29 11:30pm 102 4 G 5 64° 15% - - 16° 80.3° 56.4° - - -
4/29 11:20pm 97 5 G 6 64° 16% - - 17° 80.3° 56.4° - - -
4/29 11:10pm 117 4 G 5 64° 16% - - 17° 80.3° 56.4° - - -
4/29 11:00pm 125 5 G 6 64° 16% - - 17° 80.3° 56.4° - - -
4/29 10:50pm 133 5 G 6 64° 17% - - 18° 80.3° 56.4° - - -
4/29 10:40pm 120 5 G 7 63° 19% - - 20° 80.3° 56.4° - - -
4/29 10:30pm 127 5 G 7 63° 19% - - 21° 80.3° 56.4° - - -
4/29 10:20pm 94 5 G 7 64° 19% - - 21° 80.3° 56.4° - - -
4/29 10:10pm 113 5 G 7 64° 19% - - 21° 80.3° 56.4° - - -
4/29 10:00pm 102 6 G 7 64° 19% - - 21° 80.3° 56.4° - - -
4/29 9:50pm 101 6 G 8 63° 19% - - 20° 80.3° 56.4° - - -
4/29 9:40pm 103 7 G 8 62° 21% - - 22° 80.3° 56.4° - - -
4/29 9:30pm 115 6 G 9 63° 22% - - 23° 80.3° 56.4° - - -
4/29 9:20pm 146 7 G 9 63° 21% - - 23° 80.3° 56.4° - - -
4/29 9:10pm 152 6 G 8 64° 21% - - 23° 80.3° 56.4° - - -
4/29 9:00pm 142 7 G 9 63° 21% - - 23° 80.3° 56.4° - - -
4/29 8:50pm 137 5 G 8 63° 21% - - 23° 80.3° 56.4° - - -
4/29 8:40pm 138 7 G 9 63° 21% - - 22° 80.3° 56.4° - - -
4/29 8:30pm 146 7 G 10 63° 20% - - 22° 80.3° 56.4° - - -
4/29 8:20pm 147 6 G 10 63° 20% - - 21° 80.3° 56.4° - - -
4/29 8:10pm 143 6 G 8 63° 21% - - 22° 80.3° 56.4° - - -
4/29 8:00pm 155 7 G 10 63° 21% - - 23° 80.3° 56.4° - - -
4/29 7:50pm 146 7 G 10 64° 22% - - 25° 80.3° 56.4° - - -
4/29 7:40pm 147 6 G 11 65° 22% - - 25° 80.3° 56.4° - - -
4/29 7:30pm 153 7 G 11 65° 22% - - 26° 80.3° 56.4° - - -
4/29 7:20pm 165 8 G 12 66° 21% - - 25° 80.3° 56.4° - - -
4/29 7:10pm 172 9 G 12 67° 21% - - 26° 80.3° 56.4° - - -
4/29 7:00pm 183 8 G 12 68° 20% - - 25° 80.3° 56.4° - - -
4/29 6:50pm 184 9 G 12 68° 21% - - 26° 80.3° 56.4° - - -
4/29 6:40pm 185 10 G 13 69° 20% - - 26° 80.3° 56.4° - - -
4/29 6:30pm 196 9 G 14 70° 18% - - 25° 80.3° 56.4° - - -
4/29 6:20pm 187 10 G 14 70° 16% - - 23° 80.3° 56.4° - - -
4/29 6:10pm 188 10 G 14 71° 16% - - 22° 80.3° 56.4° - - -
4/29 6:00pm 183 10 G 15 71° 16% - - 22° 80.3° 56.4° - - -
4/29 5:50pm 182 10 G 13 71° 16% - - 22° 80.3° 56.4° - - -
4/29 5:40pm 179 9 G 13 72° 16% - - 23° 80.3° 56.4° - - -
4/29 5:30pm 195 8 G 13 73° 16% - - 24° 80.3° 56.4° - - -
4/29 5:20pm 183 10 G 15 72° 16% - - 24° 80.3° 56.4° - - -
4/29 5:10pm 182 10 G 13 72° 16% - - 24° 80.3° 56.4° - - -
4/29 5:00pm 188 9 G 14 74° 15% - - 24° 80.3° 56.4° - - -
4/29 4:50pm 185 10 G 14 73° 16% - - 24° 80.3° 56.4° - - -
4/29 4:40pm 192 8 G 13 75° 15% - - 24° 80.3° 56.4° - - -
4/29 4:30pm 210 7 G 12 75° 15% - - 24° 80.3° 56.4° - - -
4/29 4:20pm 191 8 G 15 74° 15% - - 23° 80.3° 56.4° - - -
4/29 4:10pm 195 8 G 15 76° 15% - - 25° 80.3° 56.4° - - -
4/29 4:00pm 212 10 G 15 76° 14% - - 23° 80.3° 56.4° - - -
4/29 3:50pm 208 10 G 16 76° 14% - - 23° 80.3° 56.4° - - -
4/29 3:40pm 216 12 G 19 76° 14% - - 24° 80.3° 56.4° - - -
4/29 3:30pm 231 9 G 16 77° 14% - - 23° 80.3° 56.4° - - -
4/29 3:20pm 239 9 G 16 77° 12% - - 21° 80.3° 56.4° - - -
4/29 3:10pm 273 6 G 12 79° 8% - - 14° 80.3° 56.4° - - -
4/29 3:00pm 307 7 G 15 77° 8% - - 11° 78.9° 56.4° - - -
4/29 2:50pm 269 8 G 18 77° 8% - - 12° 78.7° 56.4° - - -
4/29 2:40pm 270 8 G 15 77° 8% - - 10° 78.7° 56.4° - - -
4/29 2:30pm 295 8 G 15 77° 8% - - 10° 78.7° 56.4° - - -
4/29 2:20pm 337 8 G 16 77° 8% - - 10° 78.7° 56.4° - - -
4/29 2:10pm 317 6 G 11 77° 8% - - 11° 78.4° 56.4° - - -
4/29 2:00pm 349 7 G 14 77° 8% - - 12° 78.4° 56.4° - - -
4/29 1:50pm 271 5 G 13 77° 8% - - 12° 77.6° 56.4° - - -
4/29 1:40pm 265 6 G 14 75° 8% - - 11° 77° 56.4° - - -
4/29 1:30pm 262 5 G 14 75° 8% - - 10° 77° 56.4° - - -
4/29 1:20pm 265 6 G 12 75° 8% - - 11° 77° 56.4° - - -
4/29 1:10pm 275 6 G 13 75° 8% - - 11° 76.1° 56.4° - - -
4/29 1:00pm 278 7 G 14 74° 9% - - 11° 76.1° 56.4° - - -
4/29 12:50pm 277 7 G 12 75° 9% - - 11° 76.1° 56.4° - - -
4/29 12:40pm 288 8 G 12 74° 9% - - 11° 74.9° 56.4° - - -
4/29 12:30pm 297 7 G 14 74° 9% - - 12° 74.9° 56.4° - - -
4/29 12:20pm 272 8 G 14 73° 9% - - 12° 74.6° 56.4° - - -
4/29 12:10pm 265 11 G 17 73° 9% - - 12° 74.2° 56.4° - - -
4/29 12:00pm 283 7 G 14 73° 9% - - 11° 74.2° 56.4° - - -
4/29 11:50am 303 6 G 12 72° 9% - - 10° 73.9° 56.4° - - -
4/29 11:40am 315 8 G 17 72° 10% - - 12° 73.9° 56.4° - - -
4/29 11:30am 297 7 G 13 72° 10% - - 12° 72.6° 56.4° - - -
4/29 11:20am 323 7 G 13 70° 10% - - 11° 71.7° 56.4° - - -
4/29 11:10am 337 6 G 12 70° 10% - - 12° 71.7° 56.4° - - -
4/29 11:00am 342 7 G 14 70° 11% - - 13° 71.7° 56.4° - - -
4/29 10:50am 345 8 G 13 70° 11% - - 14° 70.9° 56.4° - - -
4/29 10:40am 317 6 G 11 69° 12% - - 14° 70.3° 56.4° - - -
4/29 10:30am 7 9 G 15 68° 12% - - 14° 69.3° 56.4° - - -
4/29 10:20am 345 9 G 16 68° 12% - - 14° 69° 56.4° - - -
4/29 10:10am 340 7 G 13 68° 13% - - 15° 69° 56.4° - - -
4/29 10:00am 329 7 G 13 67° 13% - - 15° 67.8° 56.4° - - -
4/29 9:50am 317 7 G 12 66° 13% - - 14° 66.8° 56.4° - - -
4/29 9:40am 330 6 G 11 66° 14% - - 16° 66.7° 56.4° - - -
4/29 9:30am 342 7 G 15 66° 15% - - 17° 66.7° 56.4° - - -
4/29 9:20am 338 7 G 13 65° 15% - - 16° 66.2° 56.4° - - -
4/29 9:10am 339 6 G 12 64° 16% - - 16° 66.2° 56.4° - - -
4/29 9:00am 346 7 G 14 63° 15% - - 15° 66.2° 56.4° - - -
4/29 8:50am 14 11 G 18 64° 14% - - 14° 66.2° 56.4° - - -
4/29 8:40am 25 15 G 29 64° 14% - - 13° 66.2° 56.4° - - -
4/29 8:30am 27 19 G 30 63° 13% - - 13° 66.2° 56.4° - - -
4/29 8:20am 31 20 G 34 63° 13% - - 11° 66.2° 56.4° - - -
4/29 8:10am 37 19 G 30 63° 13% - - 11° 66.2° 56.4° - - -
4/29 8:00am 42 21 G 31 63° 12% - - 66.2° 56.4° - - -
4/29 7:50am 40 18 G 27 63° 11% - - 66.2° 56.4° - - -
4/29 7:40am 41 22 G 30 63° 10% - - 66.2° 56.4° - - -
4/29 7:30am 42 23 G 33 63° 9% - - 66.2° 56.4° - - -
4/29 7:20am 38 22 G 31 62° 9% - - 66.2° 56.4° - - -
4/29 7:10am 28 22 G 32 61° 9% - - 66.2° 56.4° - - -
4/29 7:00am 29 22 G 31 60° 10% - - 66.2° 56.4° - - -
4/29 6:50am 19 17 G 24 57° 14% - - 66.2° 56.4° - - -
4/29 6:40am 7 19 G 25 59° 12% - - 66.2° 58.1° - - -
4/29 6:30am 3 19 G 27 59° 12% - - 66.2° 58.7° - - -
4/29 6:20am 14 21 G 31 61° 11% - - 66.2° 59.8° - - -
4/29 6:10am 21 22 G 33 62° 10% - - 66.2° 60.5° - - -
4/29 6:00am 28 23 G 31 61° 10% - - 66.2° 60.5° - - -
4/29 5:50am 32 25 G 34 62° 10% - - 66.2° 60.5° - - -
4/29 5:40am 34 27 G 38 61° 11% - - 66.2° 60.5° - - -
4/29 5:30am 35 28 G 37 61° 11% - - 66.2° 60.5° - - -
4/29 5:20am 36 29 G 39 61° 11% - - 66.2° 60.5° - - -
4/29 5:10am 36 28 G 37 61° 11% - - 66.2° 60.5° - - -
4/29 5:00am 38 28 G 36 61° 12% - - 66.2° 60.7° - - -
4/29 4:50am 38 28 G 37 62° 11% - - 66.2° 61.1° - - -
4/29 4:40am 38 25 G 37 62° 11% - - 66.2° 61.5° - - -
4/29 4:30am 36 27 G 37 62° 11% - - 66.2° 61.5° - - -
4/29 4:20am 40 26 G 35 62° 11% - - 66.2° 61.5° - - -
4/29 4:10am 41 28 G 37 63° 11% - - 66.2° 61.7° - - -
4/29 4:00am 39 30 G 39 62° 12% - - 66.2° 61.7° - - -
4/29 3:50am 39 29 G 39 63° 12% - - 66.2° 61.9° - - -
4/29 3:40am 40 31 G 44 62° 12% - - 66.2° 61.9° - - -
4/29 3:30am 38 32 G 42 63° 12% - - 66.2° 62.1° - - -
4/29 3:20am 42 31 G 43 63° 12% - - 66.2° 62.3° - - -
4/29 3:10am 38 32 G 42 63° 12% - - 66.2° 62.4° - - -
4/29 3:00am 45 32 G 40 63° 12% - - 10° 66.2° 62.4° - - -
4/29 2:50am 47 32 G 39 63° 12% - - 10° 66.2° 62.4° - - -
4/29 2:40am 45 32 G 39 63° 12% - - 10° 66.2° 62.7° - - -
4/29 2:30am 47 31 G 39 63° 12% - - 10° 66.2° 62.9° - - -
4/29 2:20am 45 28 G 37 64° 12% - - 11° 66.2° 63.2° - - -
4/29 2:10am 46 31 G 39 64° 12% - - 11° 66.2° 63.5° - - -
4/29 2:00am 47 27 G 35 64° 12% - - 11° 66.2° 63.8° - - -
4/29 1:50am 46 29 G 37 64° 12% - - 11° 66.2° 63.8° - - -
4/29 1:40am 48 27 G 35 64° 12% - - 11° 66.2° 63.8° - - -
4/29 1:30am 48 22 G 30 65° 12% - - 12° 66.2° 64.4° - - -
4/29 1:20am 45 20 G 29 65° 12% - - 12° 66.2° 64.4° - - -
4/29 1:10am 48 17 G 23 65° 12% - - 11° 66.2° 64.5° - - -
4/29 1:00am 45 19 G 28 65° 11% - - 10° 66.2° 64.6° - - -
4/29 12:50am 48 20 G 28 66° 12% - - 11° 66.2° 64.9° - - -
4/29 12:40am 44 23 G 33 65° 11% - - 66.2° 64.9° - - -
4/29 12:30am 41 21 G 30 66° 11% - - 66.2° 64.9° - - -
4/29 12:20am 41 21 G 28 66° 11% - - 66.2° 64.9° - - -
4/29 12:10am 39 18 G 26 66° 11% - - 66.1° 65.1° - - -
4/29 12:00am 46 19 G 28 66° 11% - - 10° 74.8° 52.2° - - -
4/28 11:50pm 46 15 G 24 65° 12% - - 11° 74.8° 52.2° - - -
4/28 11:40pm 45 15 G 24 66° 12% - - 12° 74.8° 52.2° - - -
4/28 11:30pm 50 14 G 24 65° 16% - - 17° 74.8° 52.2° - - -
4/28 11:20pm 44 12 G 18 65° 24% - - 27° 74.8° 52.2° - - -
4/28 11:10pm 40 13 G 20 64° 30% - - 31° 74.8° 52.2° - - -
4/28 11:00pm 29 10 G 12 62° 37% - - 35° 74.8° 52.2° - - -
4/28 10:50pm 9 7 G 10 61° 39% - - 36° 74.8° 52.2° - - -
4/28 10:40pm 349 7 G 10 62° 38% - - 36° 74.8° 52.2° - - -
4/28 10:30pm 349 4 G 9 64° 32% - - 33° 74.8° 52.2° - - -
4/28 10:20pm 7 6 G 11 65° 29% - - 32° 74.8° 52.2° - - -
4/28 10:10pm 57 3 G 6 63° 35% - - 34° 74.8° 52.2° - - -
4/28 10:00pm 5 4 G 6 64° 31% - - 33° 74.8° 52.2° - - -
4/28 9:50pm 15 6 G 7 63° 34% - - 34° 74.8° 52.2° - - -
4/28 9:40pm 55 4 G 6 62° 40% - - 37° 74.8° 52.2° - - -
4/28 9:30pm 101 5 G 6 60° 46% - - 39° 74.8° 52.2° - - -
4/28 9:20pm 117 6 G 8 60° 46% - - 39° 74.8° 52.2° - - -
4/28 9:10pm 103 5 G 7 60° 47% - - 39° 74.8° 52.2° - - -
4/28 9:00pm 99 6 G 8 60° 46% - - 39° 74.8° 52.2° - - -
4/28 8:50pm 123 6 G 7 61° 44% - - 39° 74.8° 52.2° - - -
4/28 8:40pm 116 6 G 8 61° 45% - - 39° 74.8° 52.2° - - -
4/28 8:30pm 119 6 G 8 60° 46% - - 40° 74.8° 52.2° - - -
4/28 8:20pm 144 5 G 7 62° 44% - - 39° 74.8° 52.2° - - -
4/28 8:10pm 128 6 G 8 62° 42% - - 39° 74.8° 52.2° - - -
4/28 8:00pm 123 6 G 8 63° 42% - - 39° 74.8° 52.2° - - -
4/28 7:50pm 123 6 G 8 63° 41% - - 39° 74.8° 52.2° - - -
4/28 7:40pm 115 5 G 7 61° 46% - - 40° 74.8° 52.2° - - -
4/28 7:30pm 135 5 G 9 61° 46% - - 40° 74.8° 52.2° - - -
4/28 7:20pm 144 5 G 7 62° 45% - - 40° 74.8° 52.2° - - -
4/28 7:10pm 171 6 G 8 62° 44% - - 40° 74.8° 52.2° - - -
4/28 7:00pm 165 7 G 9 63° 43% - - 40° 74.8° 52.2° - - -
4/28 6:50pm 162 7 G 10 64° 41% - - 40° 74.8° 52.2° - - -
4/28 6:40pm 167 7 G 10 65° 40% - - 40° 74.8° 52.2° - - -
4/28 6:30pm 183 8 G 12 65° 39% - - 40° 74.8° 52.2° - - -
4/28 6:20pm 183 8 G 12 66° 38% - - 39° 74.8° 52.2° - - -
4/28 6:10pm 189 9 G 12 66° 37% - - 39° 74.8° 52.2° - - -
4/28 6:00pm 190 8 G 11 67° 38% - - 40° 74.8° 52.2° - - -